Time;durP1;ratioP1;P1;durP2;ratioP2;P2;SDS_P1;SDS_P2;PMS_P1;PMS_P2;Temp;Humidity;BMP_temperature;BMP_pressure;BME280_temperature;BME280_humidity;BME280_pressure;Samples;Min_cycle;Max_cycle;Signal;HPM_P1;HPM_P2
2022/01/22 00:00:03;;;;;;;8.50;2.25;;;;;;;;;;5093352;27;20836;-78
2022/01/22 00:02:30;;;;;;;5.40;2.83;;;;;;;;;;5097454;27;20074;-78
2022/01/22 00:04:56;;;;;;;4.40;2.10;;;;;;;;;;5096585;27;20562;-78
2022/01/22 00:07:23;;;;;;;7.07;2.17;;;;;;;;;;5096518;27;20131;-78
2022/01/22 00:09:53;;;;;;;6.25;2.05;;;;;;;;;;5090160;28;20096;-78
2022/01/22 00:12:40;;;;;;;4.47;2.10;;;;;;;;;;5091855;27;20047;-78
2022/01/22 00:15:10;;;;;;;8.23;2.72;;;;;;;;;;5093546;27;20052;-78
2022/01/22 00:17:37;;;;;;;5.22;2.50;;;;;;;;;;5092385;27;20612;-78
2022/01/22 00:20:04;;;;;;;5.40;2.25;;;;;;;;;;5092160;27;20089;-78
2022/01/22 00:22:37;;;;;;;6.13;2.15;;;;;;;;;;5094786;27;20131;-79
2022/01/22 00:25:08;;;;;;;6.60;2.08;;;;;;;;;;5098227;27;20052;-78
2022/01/22 00:27:35;;;;;;;5.90;2.30;;;;;;;;;;5096404;27;20047;-78
2022/01/22 00:30:02;;;;;;;7.32;2.17;;;;;;;;;;5098079;27;20517;-78
2022/01/22 00:32:30;;;;;;;6.10;2.30;;;;;;;;;;5096069;28;20147;-78
2022/01/22 00:34:57;;;;;;;6.90;2.60;;;;;;;;;;5096770;28;20067;-78
2022/01/22 00:37:23;;;;;;;5.88;2.17;;;;;;;;;;5100601;27;20071;-78
2022/01/22 00:39:50;;;;;;;6.50;2.30;;;;;;;;;;5100010;27;20131;-78
2022/01/22 00:42:17;;;;;;;6.18;2.50;;;;;;;;;;5097243;27;20063;-78
2022/01/22 00:44:46;;;;;;;10.77;2.50;;;;;;;;;;5096443;28;20048;-78
2022/01/22 00:47:12;;;;;;;9.05;2.63;;;;;;;;;;5097245;27;20684;-78
2022/01/22 00:49:40;;;;;;;5.50;2.15;;;;;;;;;;5094500;28;20084;-78
2022/01/22 00:52:07;;;;;;;5.68;1.92;;;;;;;;;;5096199;28;20071;-78
2022/01/22 00:54:33;;;;;;;3.55;2.05;;;;;;;;;;5096656;28;20140;-79
2022/01/22 00:57:00;;;;;;;7.57;2.65;;;;;;;;;;5095612;28;20071;-78
2022/01/22 00:59:26;;;;;;;4.82;2.63;;;;;;;;;;5096949;27;20071;-78
2022/01/22 01:01:53;;;;;;;2.70;2.08;;;;;;;;;;5096585;28;20078;-78
2022/01/22 01:04:20;;;;;;;4.95;2.58;;;;;;;;;;5098075;28;20047;-78
2022/01/22 01:06:48;;;;;;;4.50;2.45;;;;;;;;;;5100294;28;20074;-78
2022/01/22 01:09:14;;;;;;;7.95;3.47;;;;;;;;;;5103048;28;20079;-79
2022/01/22 01:11:46;;;;;;;9.68;2.63;;;;;;;;;;5102073;28;20317;-79
2022/01/22 01:14:18;;;;;;;6.15;2.95;;;;;;;;;;5101856;28;20073;-78
2022/01/22 01:16:57;;;;;;;7.55;2.78;;;;;;;;;;5105288;28;20131;-79
2022/01/22 01:33:19;;;;;;;4.65;2.40;;;;;;;;;;5102429;28;20090;-78
2022/01/22 01:35:45;;;;;;;5.70;2.78;;;;;;;;;;5107266;28;20040;-79
2022/01/22 01:38:13;;;;;;;8.35;3.00;;;;;;;;;;5103569;28;20136;-78
2022/01/22 01:40:43;;;;;;;5.10;2.53;;;;;;;;;;5103937;28;20048;-79
2022/01/22 01:43:22;;;;;;;8.20;2.30;;;;;;;;;;5103031;28;20060;-79
2022/01/22 01:45:48;;;;;;;5.90;2.58;;;;;;;;;;5104753;28;20111;-78
2022/01/22 01:48:20;;;;;;;5.47;3.20;;;;;;;;;;5103736;28;20458;-79
2022/01/22 01:50:47;;;;;;;6.88;3.03;;;;;;;;;;5103129;28;20050;-79
2022/01/22 01:53:25;;;;;;;7.72;2.70;;;;;;;;;;5103792;28;20491;-79
2022/01/22 01:56:04;;;;;;;5.32;2.42;;;;;;;;;;5103878;28;20054;-78
2022/01/22 01:58:30;;;;;;;6.10;2.80;;;;;;;;;;5101802;28;20048;-78
2022/01/22 02:01:00;;;;;;;8.60;2.97;;;;;;;;;;5102268;28;20481;-78
2022/01/22 02:03:27;;;;;;;6.50;3.45;;;;;;;;;;5103947;28;20040;-80
2022/01/22 02:05:53;;;;;;;4.38;2.20;;;;;;;;;;5101080;28;20442;-78
2022/01/22 02:08:22;;;;;;;6.75;2.92;;;;;;;;;;5101680;28;20078;-79
2022/01/22 02:10:56;;;;;;;9.38;3.00;;;;;;;;;;5100999;28;20124;-79
2022/01/22 02:24:14;;;;;;;8.07;2.45;;;;;;;;;;5116351;27;20114;-78
2022/01/22 02:26:46;;;;;;;7.07;2.42;;;;;;;;;;5116616;28;20058;-79
2022/01/22 02:29:13;;;;;;;7.85;2.67;;;;;;;;;;5111116;27;20040;-79
2022/01/22 02:31:42;;;;;;;4.22;2.13;;;;;;;;;;5108607;28;20083;-78
2022/01/22 02:34:16;;;;;;;4.95;2.42;;;;;;;;;;5106596;28;20060;-78
2022/01/22 02:36:57;;;;;;;7.32;3.17;;;;;;;;;;5112602;27;20047;-79
2022/01/22 02:39:36;;;;;;;8.32;2.80;;;;;;;;;;5110515;27;20048;-79
2022/01/22 02:42:02;;;;;;;7.00;3.03;;;;;;;;;;5108697;28;20043;-78
2022/01/22 02:44:34;;;;;;;8.13;2.97;;;;;;;;;;5103336;28;20085;-78
2022/01/22 02:47:00;;;;;;;7.03;3.15;;;;;;;;;;5103676;27;20040;-78
2022/01/22 02:49:27;;;;;;;6.32;3.55;;;;;;;;;;5104122;28;20055;-78
2022/01/22 02:51:59;;;;;;;4.97;2.78;;;;;;;;;;5104713;28;20140;-78
2022/01/22 02:54:25;;;;;;;5.97;2.50;;;;;;;;;;5103905;27;20074;-78
2022/01/22 02:56:52;;;;;;;5.10;2.75;;;;;;;;;;5103769;28;20111;-78
2022/01/22 02:59:22;;;;;;;5.47;2.67;;;;;;;;;;5103748;28;20052;-78
2022/01/22 03:01:48;;;;;;;5.57;3.33;;;;;;;;;;5103101;27;20496;-79
2022/01/22 03:04:15;;;;;;;5.88;3.08;;;;;;;;;;5104806;28;20505;-78
2022/01/22 03:06:41;;;;;;;6.63;3.17;;;;;;;;;;5104308;27;20064;-78
2022/01/22 03:09:12;;;;;;;7.15;3.03;;;;;;;;;;5106330;27;20106;-78
2022/01/22 03:11:46;;;;;;;5.93;2.90;;;;;;;;;;5107135;28;20043;-78
2022/01/22 03:14:51;;;;;;;7.63;3.55;;;;;;;;;;5104100;27;20127;-78
2022/01/22 03:17:28;;;;;;;9.23;3.38;;;;;;;;;;5102879;27;20051;-78
2022/01/22 03:20:03;;;;;;;7.47;3.60;;;;;;;;;;5103476;28;20047;-79
2022/01/22 03:22:52;;;;;;;4.80;2.60;;;;;;;;;;5105235;28;20060;-79
2022/01/22 03:28:01;;;;;;;8.00;4.63;;;;;;;;;;5103365;27;20213;-78
2022/01/22 03:30:28;;;;;;;4.38;2.90;;;;;;;;;;5104234;27;20722;-78
2022/01/22 03:32:56;;;;;;;6.07;3.08;;;;;;;;;;5103187;27;20127;-78
2022/01/22 03:35:33;;;;;;;6.88;3.00;;;;;;;;;;5103749;27;20186;-78
2022/01/22 03:38:00;;;;;;;6.80;3.60;;;;;;;;;;5105817;27;20149;-79
2022/01/22 03:40:29;;;;;;;6.40;2.90;;;;;;;;;;5102101;28;20462;-79
2022/01/22 03:42:56;;;;;;;5.22;2.90;;;;;;;;;;5105150;27;20066;-78
2022/01/22 03:45:24;;;;;;;11.52;3.53;;;;;;;;;;5107580;28;20079;-78
2022/01/22 03:47:50;;;;;;;7.82;3.10;;;;;;;;;;5104812;27;20517;-78
2022/01/22 03:50:19;;;;;;;6.85;3.15;;;;;;;;;;5104025;28;20552;-78
2022/01/22 03:52:45;;;;;;;9.15;3.22;;;;;;;;;;5103158;27;20063;-78
2022/01/22 03:55:24;;;;;;;7.70;2.90;;;;;;;;;;5103981;27;20127;-78
2022/01/22 03:57:52;;;;;;;7.60;3.28;;;;;;;;;;5103003;27;20043;-78
2022/01/22 04:00:18;;;;;;;6.90;3.95;;;;;;;;;;5100553;28;20047;-78
2022/01/22 04:05:28;;;;;;;5.97;3.17;;;;;;;;;;5102447;27;20048;-78
2022/01/22 04:08:13;;;;;;;6.30;3.35;;;;;;;;;;5107063;27;20044;-78
2022/01/22 04:10:39;;;;;;;6.65;3.60;;;;;;;;;;5106198;27;20043;-78
2022/01/22 04:13:11;;;;;;;7.15;3.40;;;;;;;;;;5099100;27;20036;-78
2022/01/22 04:15:40;;;;;;;8.18;3.53;;;;;;;;;;5100108;27;20497;-79
2022/01/22 04:26:29;;;;;;;8.10;5.22;;;;;;;;;;5105319;28;20092;-78
2022/01/22 04:28:58;;;;;;;9.88;4.00;;;;;;;;;;5107926;28;20036;-78
2022/01/22 04:31:24;;;;;;;10.73;4.32;;;;;;;;;;5104208;27;20072;-78
2022/01/22 04:33:51;;;;;;;8.90;4.07;;;;;;;;;;5093476;28;20178;-78
2022/01/22 04:36:17;;;;;;;7.68;3.83;;;;;;;;;;5099451;27;20139;-77
2022/01/22 04:38:44;;;;;;;6.05;3.55;;;;;;;;;;5098227;27;20079;-78
2022/01/22 04:41:10;;;;;;;10.02;4.68;;;;;;;;;;5101108;27;21360;-78
2022/01/22 04:43:39;;;;;;;8.35;3.65;;;;;;;;;;5101358;28;20078;-78
2022/01/22 04:46:15;;;;;;;8.73;4.43;;;;;;;;;;5105800;27;20407;-78
2022/01/22 04:48:51;;;;;;;;;;;;;;;;;;5103367;28;20067;-79
2022/01/22 04:56:46;;;;;;;8.27;4.20;;;;;;;;;;5101538;28;20096;-78
2022/01/22 04:59:13;;;;;;;9.38;4.20;;;;;;;;;;5101438;27;20096;-78
2022/01/22 05:01:41;;;;;;;7.05;4.03;;;;;;;;;;5100744;28;20090;-79
2022/01/22 05:04:08;;;;;;;11.65;5.45;;;;;;;;;;5099200;28;20688;-78
2022/01/22 05:06:35;;;;;;;7.90;4.10;;;;;;;;;;5103661;27;20101;-78
2022/01/22 05:09:02;;;;;;;9.23;4.38;;;;;;;;;;5103139;27;20040;-78
2022/01/22 05:11:28;;;;;;;9.70;3.75;;;;;;;;;;5102806;28;20075;-79
2022/01/22 05:13:55;;;;;;;9.15;4.30;;;;;;;;;;5105441;27;20071;-79
2022/01/22 05:16:22;;;;;;;10.82;4.90;;;;;;;;;;5107224;27;20043;-79
2022/01/22 05:18:55;;;;;;;9.52;4.50;;;;;;;;;;5106111;28;20039;-79
2022/01/22 05:21:23;;;;;;;7.40;4.13;;;;;;;;;;5105890;28;20047;-79
2022/01/22 05:23:50;;;;;;;9.57;4.88;;;;;;;;;;5105314;27;20054;-78
2022/01/22 05:26:43;;;;;;;9.43;5.30;;;;;;;;;;5102154;28;20671;-79
2022/01/22 05:29:24;;;;;;;7.60;4.80;;;;;;;;;;5103799;28;20071;-78
2022/01/22 05:32:19;;;;;;;10.23;5.20;;;;;;;;;;5106416;28;20506;-79
2022/01/22 05:37:32;;;;;;;10.13;5.30;;;;;;;;;;5106619;28;20051;-79
2022/01/22 05:39:59;;;;;;;13.63;4.93;;;;;;;;;;5106193;28;20058;-79
2022/01/22 05:42:26;;;;;;;13.27;5.63;;;;;;;;;;5105010;28;20044;-78
2022/01/22 05:44:52;;;;;;;11.55;5.30;;;;;;;;;;5106227;28;20067;-78
2022/01/22 05:47:22;;;;;;;9.35;5.43;;;;;;;;;;5103473;28;20075;-79
2022/01/22 05:49:50;;;;;;;11.38;5.85;;;;;;;;;;5103661;28;20092;-79
2022/01/22 05:52:25;;;;;;;8.48;4.85;;;;;;;;;;5103665;28;20148;-79
2022/01/22 06:01:09;;;;;;;12.70;5.45;;;;;;;;;;5152306;27;20078;-79
2022/01/22 06:03:36;;;;;;;12.50;6.65;;;;;;;;;;5148629;27;20039;-79
2022/01/22 06:06:03;;;;;;;8.32;5.13;;;;;;;;;;5151893;27;20047;-79
2022/01/22 06:08:41;;;;;;;14.48;6.25;;;;;;;;;;5150772;27;20047;-79
2022/01/22 06:11:09;;;;;;;12.73;5.75;;;;;;;;;;5149517;27;20059;-79
2022/01/22 06:13:44;;;;;;;11.52;6.90;;;;;;;;;;5149125;27;20043;-79
2022/01/22 06:16:11;;;;;;;13.25;6.22;;;;;;;;;;5147979;27;20064;-80
2022/01/22 06:18:38;;;;;;;11.80;5.53;;;;;;;;;;5151265;27;20050;-79
2022/01/22 06:21:05;;;;;;;12.77;5.85;;;;;;;;;;5150751;27;20043;-79
2022/01/22 06:23:32;;;;;;;12.30;6.38;;;;;;;;;;5150315;27;20044;-79
2022/01/22 06:26:00;;;;;;;9.77;5.95;;;;;;;;;;5148892;27;20048;-79
2022/01/22 06:28:27;;;;;;;12.65;6.13;;;;;;;;;;5147681;27;20054;-79
2022/01/22 06:30:55;;;;;;;13.35;6.82;;;;;;;;;;5152113;27;20047;-79
2022/01/22 06:33:22;;;;;;;11.90;6.50;;;;;;;;;;5150965;27;20046;-79
2022/01/22 06:35:49;;;;;;;13.20;6.57;;;;;;;;;;5147452;27;20039;-79
2022/01/22 06:38:16;;;;;;;13.43;7.13;;;;;;;;;;5151280;27;20063;-79
2022/01/22 06:43:28;;;;;;;10.65;6.60;;;;;;;;;;5148414;27;20053;-79
2022/01/22 06:45:56;;;;;;;13.98;6.55;;;;;;;;;;5149700;27;20073;-79
2022/01/22 06:48:22;;;;;;;12.15;6.95;;;;;;;;;;5149592;27;20058;-79
2022/01/22 06:50:49;;;;;;;12.27;6.82;;;;;;;;;;5150806;27;20082;-79
2022/01/22 06:53:16;;;;;;;13.15;6.03;;;;;;;;;;5153829;27;20103;-79
2022/01/22 06:55:45;;;;;;;13.13;6.28;;;;;;;;;;5150518;27;20054;-79
2022/01/22 06:58:12;;;;;;;14.27;6.70;;;;;;;;;;5151331;27;20663;-79
2022/01/22 07:00:38;;;;;;;13.02;6.70;;;;;;;;;;5151577;27;20051;-79
2022/01/22 07:03:06;;;;;;;13.80;6.85;;;;;;;;;;5145911;27;20103;-78
2022/01/22 07:05:33;;;;;;;14.35;6.43;;;;;;;;;;5147167;27;20065;-77
2022/01/22 07:08:00;;;;;;;13.10;6.75;;;;;;;;;;5131492;27;20470;-77
2022/01/22 07:10:26;;;;;;;20.30;7.25;;;;;;;;;;5124353;27;20073;-77
2022/01/22 07:12:53;;;;;;;12.98;6.32;;;;;;;;;;5128734;27;20166;-78
2022/01/22 07:15:21;;;;;;;13.68;6.40;;;;;;;;;;5131804;27;20071;-79
2022/01/22 07:17:47;;;;;;;13.52;6.63;;;;;;;;;;5135215;27;20039;-79
2022/01/22 07:20:18;;;;;;;12.75;6.53;;;;;;;;;;5133564;27;20047;-79
2022/01/22 07:22:53;;;;;;;13.13;5.68;;;;;;;;;;5131186;27;20040;-79
2022/01/22 07:25:20;;;;;;;14.10;6.28;;;;;;;;;;5131533;27;20039;-79
2022/01/22 07:27:47;;;;;;;13.48;6.63;;;;;;;;;;5133581;27;20054;-78
2022/01/22 07:30:14;;;;;;;15.13;7.35;;;;;;;;;;5133083;27;20078;-79
2022/01/22 07:32:43;;;;;;;17.08;8.43;;;;;;;;;;5133294;27;20082;-79
2022/01/22 07:35:10;;;;;;;12.73;7.18;;;;;;;;;;5134226;27;20055;-79
2022/01/22 07:37:38;;;;;;;15.05;7.90;;;;;;;;;;5134538;27;20067;-79
2022/01/22 07:40:06;;;;;;;13.50;7.22;;;;;;;;;;5133770;27;20086;-79
2022/01/22 07:42:32;;;;;;;14.30;7.65;;;;;;;;;;5136165;27;20063;-79
2022/01/22 07:44:59;;;;;;;13.13;6.55;;;;;;;;;;5134496;27;20043;-79
2022/01/22 07:47:26;;;;;;;12.23;6.60;;;;;;;;;;5132341;27;20051;-79
2022/01/22 07:49:52;;;;;;;11.98;6.47;;;;;;;;;;5130508;27;20085;-79
2022/01/22 07:52:19;;;;;;;12.50;6.93;;;;;;;;;;5132708;27;20079;-79
2022/01/22 07:54:47;;;;;;;15.25;6.85;;;;;;;;;;5113940;27;20071;-79
2022/01/22 07:57:13;;;;;;;15.38;7.05;;;;;;;;;;5129803;27;20073;-79
2022/01/22 07:59:40;;;;;;;11.95;6.60;;;;;;;;;;5127965;27;20074;-78
2022/01/22 08:02:07;;;;;;;12.48;6.10;;;;;;;;;;5131164;27;20071;-78
2022/01/22 08:04:34;;;;;;;15.82;6.60;;;;;;;;;;5131314;27;20036;-78
2022/01/22 08:07:04;;;;;;;14.38;6.65;;;;;;;;;;5127254;27;20071;-78
2022/01/22 08:09:31;;;;;;;15.05;6.57;;;;;;;;;;5135329;27;20078;-80
2022/01/22 08:12:00;;;;;;;13.38;7.05;;;;;;;;;;5113253;27;20071;-78
2022/01/22 08:14:27;;;;;;;11.93;6.85;;;;;;;;;;5133753;27;20091;-78
2022/01/22 08:16:53;;;;;;;12.98;7.00;;;;;;;;;;5132697;27;20085;-79
2022/01/22 08:19:20;;;;;;;12.40;6.10;;;;;;;;;;5131221;27;20063;-79
2022/01/22 08:21:47;;;;;;;14.00;6.70;;;;;;;;;;5135508;27;20075;-79
2022/01/22 08:24:15;;;;;;;15.98;7.45;;;;;;;;;;5136518;27;20062;-81
2022/01/22 08:26:46;;;;;;;10.60;7.00;;;;;;;;;;5137089;27;20047;-79
2022/01/22 08:29:13;;;;;;;11.65;6.30;;;;;;;;;;5136730;27;20084;-79
2022/01/22 08:32:03;;;;;;;12.32;6.45;;;;;;;;;;5136782;27;20051;-79
2022/01/22 08:37:14;;;;;;;12.23;7.03;;;;;;;;;;5135427;27;20376;-79
2022/01/22 08:39:40;;;;;;;11.88;6.35;;;;;;;;;;5136522;27;20039;-80
2022/01/22 08:42:07;;;;;;;10.32;6.05;;;;;;;;;;5136121;27;20073;-79
2022/01/22 08:44:36;;;;;;;12.10;6.18;;;;;;;;;;5137575;27;20339;-79
2022/01/22 08:47:03;;;;;;;10.57;5.95;;;;;;;;;;5136997;27;20055;-79
2022/01/22 08:49:30;;;;;;;13.23;7.78;;;;;;;;;;5136578;27;20065;-79
2022/01/22 08:51:57;;;;;;;16.27;7.70;;;;;;;;;;5136747;27;20051;-79
2022/01/22 08:54:23;;;;;;;14.93;7.57;;;;;;;;;;5136153;27;20064;-79
2022/01/22 08:56:50;;;;;;;19.95;7.43;;;;;;;;;;5135328;27;20071;-80
2022/01/22 08:59:16;;;;;;;17.40;7.72;;;;;;;;;;5135441;27;20051;-79
2022/01/22 09:01:48;;;;;;;16.25;7.82;;;;;;;;;;5138279;27;20069;-79
2022/01/22 09:04:15;;;;;;;15.00;7.68;;;;;;;;;;5136382;27;20076;-80
2022/01/22 09:06:41;;;;;;;12.80;6.88;;;;;;;;;;5135207;27;20060;-81
2022/01/22 09:09:11;;;;;;;15.35;8.23;;;;;;;;;;5123418;27;20130;-77
2022/01/22 09:11:40;;;;;;;14.35;8.10;;;;;;;;;;5116656;27;20047;-79
2022/01/22 09:14:10;;;;;;;20.15;10.15;;;;;;;;;;5120103;27;20075;-78
2022/01/22 09:16:37;;;;;;;24.20;12.35;;;;;;;;;;5117400;27;20071;-77
2022/01/22 09:19:09;;;;;;;25.83;12.18;;;;;;;;;;5118969;27;20135;-77
2022/01/22 09:21:37;;;;;;;17.40;9.38;;;;;;;;;;5126416;27;20072;-76
2022/01/22 09:24:04;;;;;;;17.27;8.73;;;;;;;;;;5118431;27;20139;-78
2022/01/22 09:26:31;;;;;;;15.15;8.10;;;;;;;;;;5117864;27;20071;-76
2022/01/22 09:29:00;;;;;;;20.38;9.35;;;;;;;;;;5117992;27;20155;-77
2022/01/22 09:31:27;;;;;;;19.50;9.88;;;;;;;;;;5123602;27;20069;-78
2022/01/22 09:33:56;;;;;;;18.40;9.95;;;;;;;;;;5120284;27;21655;-78
2022/01/22 09:36:25;;;;;;;18.02;9.68;;;;;;;;;;5125483;27;20039;-80
2022/01/22 09:38:52;;;;;;;17.58;9.15;;;;;;;;;;5133279;27;20051;-80
2022/01/22 09:41:20;;;;;;;18.67;8.57;;;;;;;;;;5126662;27;20075;-79
2022/01/22 09:43:47;;;;;;;19.92;10.80;;;;;;;;;;5131200;27;20073;-78
2022/01/22 09:46:14;;;;;;;19.33;10.63;;;;;;;;;;5127255;27;20079;-78
2022/01/22 09:48:41;;;;;;;22.15;10.45;;;;;;;;;;5126586;27;20102;-78
2022/01/22 09:51:08;;;;;;;19.85;9.68;;;;;;;;;;5133024;27;20065;-80
2022/01/22 09:53:36;;;;;;;17.55;9.30;;;;;;;;;;5135838;28;20047;-78
2022/01/22 09:56:02;;;;;;;17.25;8.57;;;;;;;;;;5131506;28;20044;-77
2022/01/22 09:58:30;;;;;;;16.10;8.40;;;;;;;;;;5124308;28;20051;-78
2022/01/22 10:01:18;;;;;;;16.58;8.55;;;;;;;;;;5125230;28;20510;-78
2022/01/22 10:03:45;;;;;;;14.73;8.77;;;;;;;;;;5124015;28;20078;-80
2022/01/22 10:06:14;;;;;;;15.15;8.18;;;;;;;;;;5127251;28;20115;-81
2022/01/22 10:08:42;;;;;;;15.40;8.55;;;;;;;;;;5128998;28;20096;-78
2022/01/22 10:11:17;;;;;;;15.13;8.65;;;;;;;;;;5127185;27;20509;-80
2022/01/22 10:13:45;;;;;;;15.38;8.15;;;;;;;;;;5125997;28;20075;-78
2022/01/22 10:16:13;;;;;;;16.50;8.75;;;;;;;;;;5129588;28;20127;-79
2022/01/22 10:18:40;;;;;;;15.02;8.32;;;;;;;;;;5124270;28;20083;-78
2022/01/22 10:21:09;;;;;;;17.30;7.82;;;;;;;;;;5127794;28;20039;-78
2022/01/22 10:23:39;;;;;;;14.60;8.23;;;;;;;;;;5124201;27;20380;-78
2022/01/22 10:26:10;;;;;;;16.73;8.13;;;;;;;;;;5122866;28;20051;-78
2022/01/22 10:28:44;;;;;;;13.18;8.32;;;;;;;;;;5125079;28;20039;-80
2022/01/22 10:31:19;;;;;;;17.30;10.68;;;;;;;;;;5127205;28;20569;-78
2022/01/22 10:34:04;;;;;;;17.08;8.40;;;;;;;;;;5121490;28;20059;-80
2022/01/22 10:36:30;;;;;;;14.00;7.95;;;;;;;;;;5133182;28;20458;-81
2022/01/22 10:38:57;;;;;;;16.35;8.85;;;;;;;;;;5127947;28;20043;-80
2022/01/22 10:41:35;;;;;;;51.67;12.07;;;;;;;;;;5125335;28;20074;-80
2022/01/22 10:44:02;;;;;;;19.17;9.25;;;;;;;;;;5129980;27;20039;-81
2022/01/22 10:46:43;;;;;;;16.50;8.63;;;;;;;;;;5134244;27;20075;-81
2022/01/22 10:49:12;;;;;;;18.20;8.98;;;;;;;;;;5133467;27;20078;-81
2022/01/22 10:51:46;;;;;;;17.02;9.32;;;;;;;;;;5135036;27;20043;-81
2022/01/22 10:54:14;;;;;;;15.38;7.95;;;;;;;;;;5133813;27;20078;-81
2022/01/22 10:56:42;;;;;;;16.35;8.80;;;;;;;;;;5132201;27;20113;-81
2022/01/22 10:59:11;;;;;;;15.43;8.88;;;;;;;;;;5134803;27;20088;-81
2022/01/22 11:01:53;;;;;;;13.02;7.90;;;;;;;;;;5115021;27;20084;-81
2022/01/22 11:04:22;;;;;;;13.20;8.82;;;;;;;;;;5123291;27;20040;-78
2022/01/22 11:06:54;;;;;;;15.57;8.40;;;;;;;;;;5119424;27;20711;-75
2022/01/22 11:09:21;;;;;;;17.50;8.07;;;;;;;;;;5121229;27;20055;-75
2022/01/22 11:11:50;;;;;;;17.05;8.68;;;;;;;;;;5120786;27;20454;-76
2022/01/22 11:14:17;;;;;;;17.08;8.13;;;;;;;;;;5122350;27;20082;-75
2022/01/22 11:16:45;;;;;;;16.00;8.27;;;;;;;;;;5121685;27;20699;-78
2022/01/22 11:19:15;;;;;;;13.82;7.35;;;;;;;;;;5122694;27;20135;-77
2022/01/22 11:21:46;;;;;;;13.45;7.78;;;;;;;;;;5121959;27;20130;-77
2022/01/22 11:24:13;;;;;;;16.58;8.18;;;;;;;;;;5122048;27;20043;-77
2022/01/22 11:26:40;;;;;;;16.77;7.50;;;;;;;;;;5121060;27;20142;-77
2022/01/22 11:29:08;;;;;;;12.40;8.15;;;;;;;;;;5122269;27;20048;-77
2022/01/22 11:31:34;;;;;;;18.45;7.22;;;;;;;;;;5118896;27;20101;-77
2022/01/22 11:34:01;;;;;;;11.73;7.47;;;;;;;;;;5122174;27;20047;-77
2022/01/22 11:36:31;;;;;;;14.05;7.55;;;;;;;;;;5122211;27;20134;-77
2022/01/22 11:38:59;;;;;;;17.05;7.28;;;;;;;;;;5121366;27;20047;-77
2022/01/22 11:41:27;;;;;;;16.05;7.95;;;;;;;;;;5122184;27;20047;-77
2022/01/22 11:44:03;;;;;;;15.60;7.47;;;;;;;;;;5121137;27;20083;-75
2022/01/22 11:46:35;;;;;;;14.73;7.13;;;;;;;;;;5122219;27;20044;-78
2022/01/22 11:49:14;;;;;;;18.85;7.82;;;;;;;;;;5120636;27;21330;-77
2022/01/22 11:51:45;;;;;;;16.17;7.97;;;;;;;;;;5119293;27;20078;-76
2022/01/22 11:54:14;;;;;;;14.38;7.38;;;;;;;;;;5120542;27;20487;-77
2022/01/22 11:56:46;;;;;;;14.95;8.60;;;;;;;;;;5116608;27;20090;-77
2022/01/22 11:59:22;;;;;;;18.83;9.77;;;;;;;;;;5122295;27;20057;-76
2022/01/22 12:02:04;;;;;;;14.90;9.17;;;;;;;;;;5123706;27;20075;-75
2022/01/22 12:04:50;;;;;;;11.98;7.07;;;;;;;;;;5119743;27;20079;-77
2022/01/22 12:07:25;;;;;;;14.95;7.90;;;;;;;;;;5116898;27;20050;-77
2022/01/22 12:16:12;;;;;;;14.95;8.27;;;;;;;;;;5115663;27;20429;-79
2022/01/22 12:18:46;;;;;;;14.30;7.38;;;;;;;;;;5125847;27;20078;-79
2022/01/22 12:21:36;;;;;;;15.70;9.73;;;;;;;;;;5122253;27;20096;-78
2022/01/22 12:24:08;;;;;;;17.92;8.75;;;;;;;;;;5121289;27;20491;-77
2022/01/22 12:26:49;;;;;;;16.48;8.15;;;;;;;;;;5126788;27;20582;-80
2022/01/22 12:29:34;;;;;;;16.67;9.27;;;;;;;;;;5130822;27;20092;-82
2022/01/22 12:32:35;;;;;;;15.13;7.47;;;;;;;;;;5123663;27;20399;-78
2022/01/22 12:35:09;;;;;;;16.83;9.68;;;;;;;;;;5122884;27;20043;-78
2022/01/22 12:37:43;;;;;;;19.17;7.97;;;;;;;;;;5123462;27;20046;-77
2022/01/22 12:40:14;;;;;;;18.45;8.27;;;;;;;;;;5120791;27;20051;-75
2022/01/22 12:42:55;;;;;;;14.32;7.82;;;;;;;;;;5122707;27;20082;-76
2022/01/22 12:45:25;;;;;;;15.13;7.57;;;;;;;;;;5123779;27;20396;-77
2022/01/22 12:47:52;;;;;;;16.83;8.13;;;;;;;;;;5122795;27;20079;-76
2022/01/22 12:50:27;;;;;;;17.13;8.40;;;;;;;;;;5126908;27;20039;-77
2022/01/22 12:52:55;;;;;;;20.83;9.20;;;;;;;;;;5123937;27;20475;-78
2022/01/22 12:55:25;;;;;;;23.05;9.90;;;;;;;;;;5128947;27;20043;-79
2022/01/22 12:57:52;;;;;;;27.77;14.10;;;;;;;;;;5131218;27;20058;-79
2022/01/22 13:00:20;;;;;;;17.48;9.77;;;;;;;;;;5130496;27;20070;-78
2022/01/22 13:02:49;;;;;;;16.50;8.75;;;;;;;;;;5125605;27;20058;-82
2022/01/22 13:05:18;;;;;;;21.45;10.63;;;;;;;;;;5125584;27;20123;-79
2022/01/22 13:07:52;;;;;;;22.60;12.18;;;;;;;;;;5118012;27;20120;-76
2022/01/22 13:10:22;;;;;;;20.77;10.25;;;;;;;;;;5118717;27;20046;-77
2022/01/22 13:12:49;;;;;;;22.90;9.52;;;;;;;;;;5122724;27;20050;-78
2022/01/22 13:15:16;;;;;;;18.20;9.55;;;;;;;;;;5118971;27;20094;-78
2022/01/22 13:17:51;;;;;;;21.33;10.82;;;;;;;;;;5122232;27;20078;-77
2022/01/22 13:20:20;;;;;;;21.83;9.98;;;;;;;;;;5122069;27;20043;-78
2022/01/22 13:22:48;;;;;;;20.85;10.95;;;;;;;;;;5118717;27;20505;-76
2022/01/22 13:25:16;;;;;;;20.00;9.38;;;;;;;;;;5116235;27;20119;-75
2022/01/22 13:27:44;;;;;;;19.73;10.20;;;;;;;;;;5116761;27;20059;-73
2022/01/22 13:30:13;;;;;;;20.02;10.02;;;;;;;;;;5118284;27;20851;-76
2022/01/22 13:32:50;;;;;;;19.67;10.25;;;;;;;;;;5119620;27;20099;-77
2022/01/22 13:35:31;;;;;;;20.92;10.65;;;;;;;;;;5118571;27;20043;-76
2022/01/22 13:45:03;;;;;;;23.02;10.00;;;;;;;;;;5117341;27;20557;-77
2022/01/22 13:49:26;;;;;;;19.10;10.50;;;;;;;;;;5119462;27;20187;-75
2022/01/22 13:51:54;;;;;;;17.27;9.57;;;;;;;;;;5120483;27;20056;-77
2022/01/22 13:54:27;;;;;;;16.77;8.95;;;;;;;;;;5121248;27;20093;-76
2022/01/22 13:56:58;;;;;;;18.52;9.75;;;;;;;;;;5118708;28;20074;-75
2022/01/22 13:59:26;;;;;;;20.60;10.50;;;;;;;;;;5120004;27;20459;-77
2022/01/22 14:02:08;;;;;;;21.55;11.45;;;;;;;;;;5118108;28;20127;-75
2022/01/22 14:04:47;;;;;;;19.67;10.77;;;;;;;;;;5116288;28;20133;-74
2022/01/22 14:07:25;;;;;;;21.92;10.57;;;;;;;;;;5114315;28;20134;-75
2022/01/22 14:09:58;;;;;;;21.30;11.63;;;;;;;;;;5115407;28;20051;-76
2022/01/22 14:12:27;;;;;;;19.15;10.60;;;;;;;;;;5116461;28;20151;-75
2022/01/22 14:15:05;;;;;;;22.60;10.85;;;;;;;;;;5116388;28;20079;-78
2022/01/22 14:17:38;;;;;;;19.77;10.80;;;;;;;;;;5121191;28;20713;-76
2022/01/22 14:20:08;;;;;;;20.35;9.93;;;;;;;;;;5120569;27;20047;-77
2022/01/22 14:22:57;;;;;;;20.25;10.15;;;;;;;;;;5117355;27;20079;-77
2022/01/22 14:25:25;;;;;;;21.10;11.30;;;;;;;;;;5121917;27;20138;-78
2022/01/22 14:27:56;;;;;;;21.63;11.18;;;;;;;;;;5125822;27;20067;-78
2022/01/22 14:30:31;;;;;;;29.50;12.48;;;;;;;;;;5123789;27;20098;-78
2022/01/22 14:32:58;;;;;;;22.23;11.25;;;;;;;;;;5121093;27;20136;-76
2022/01/22 14:35:25;;;;;;;21.02;11.88;;;;;;;;;;5118719;27;20134;-75
2022/01/22 14:37:54;;;;;;;22.25;10.50;;;;;;;;;;5118718;27;20538;-78
2022/01/22 14:45:56;;;;;;;21.80;11.75;;;;;;;;;;5121590;27;20472;-74
2022/01/22 14:48:22;;;;;;;19.17;10.43;;;;;;;;;;5119329;27;20386;-75
2022/01/22 14:50:49;;;;;;;25.33;11.80;;;;;;;;;;5120861;27;20071;-74
2022/01/22 14:53:16;;;;;;;22.08;11.73;;;;;;;;;;5118309;27;20122;-75
2022/01/22 14:55:49;;;;;;;23.88;11.55;;;;;;;;;;5121287;27;20043;-75
2022/01/22 14:58:16;;;;;;;20.70;9.80;;;;;;;;;;5113616;27;20687;-74
2022/01/22 15:00:43;;;;;;;25.13;10.43;;;;;;;;;;5108795;27;20039;-74
2022/01/22 15:03:10;;;;;;;18.63;10.20;;;;;;;;;;5112676;27;20138;-74
2022/01/22 15:05:37;;;;;;;21.50;10.65;;;;;;;;;;5110193;27;20461;-74
2022/01/22 15:08:04;;;;;;;17.13;10.23;;;;;;;;;;5111842;27;20840;-73
2022/01/22 15:10:31;;;;;;;22.50;9.98;;;;;;;;;;5106691;27;20142;-75
2022/01/22 15:12:57;;;;;;;20.77;9.93;;;;;;;;;;5099557;27;20050;-74
2022/01/22 15:15:31;;;;;;;21.27;10.05;;;;;;;;;;5108349;27;20390;-77
2022/01/22 15:18:07;;;;;;;21.42;10.23;;;;;;;;;;5111571;27;20100;-75
2022/01/22 15:20:34;;;;;;;24.75;11.50;;;;;;;;;;5109971;27;20089;-74
2022/01/22 15:23:01;;;;;;;25.13;12.13;;;;;;;;;;5111409;27;20039;-74
2022/01/22 15:25:27;;;;;;;21.52;10.88;;;;;;;;;;5105174;27;20047;-74
2022/01/22 15:27:55;;;;;;;21.30;11.63;;;;;;;;;;5111605;27;21403;-74
2022/01/22 15:30:24;;;;;;;26.60;13.07;;;;;;;;;;5108484;27;20058;-75
2022/01/22 15:32:58;;;;;;;23.02;10.68;;;;;;;;;;5109781;27;20053;-74
2022/01/22 15:35:24;;;;;;;21.77;10.45;;;;;;;;;;5107064;27;20244;-74
2022/01/22 15:37:53;;;;;;;25.73;11.32;;;;;;;;;;5110856;27;20078;-78
2022/01/22 15:40:22;;;;;;;24.20;11.60;;;;;;;;;;5122729;27;20055;-82
2022/01/22 15:42:49;;;;;;;26.17;12.43;;;;;;;;;;5126366;27;20102;-77
2022/01/22 15:45:17;;;;;;;25.50;12.63;;;;;;;;;;5123505;27;20467;-78
2022/01/22 15:47:44;;;;;;;20.27;10.40;;;;;;;;;;5123126;27;20158;-77
2022/01/22 15:50:12;;;;;;;27.20;13.00;;;;;;;;;;5128540;27;20557;-79
2022/01/22 15:52:38;;;;;;;25.70;12.00;;;;;;;;;;5126761;27;20071;-78
2022/01/22 15:55:08;;;;;;;23.33;12.18;;;;;;;;;;5123248;27;20079;-78
2022/01/22 15:57:35;;;;;;;25.17;12.63;;;;;;;;;;5124884;27;20047;-78
2022/01/22 16:00:02;;;;;;;21.73;12.05;;;;;;;;;;5123408;27;20054;-83
2022/01/22 16:02:29;;;;;;;23.98;12.30;;;;;;;;;;5126760;27;20074;-81
2022/01/22 16:05:03;;;;;;;22.65;11.85;;;;;;;;;;5133786;27;20043;-87